createdAt,value
2022-09-01T00:00:30.095Z,99383.47
2022-09-01T00:02:58.199Z,99378.53
2022-09-01T00:05:26.274Z,99372.84
2022-09-01T00:07:54.370Z,99368.19
2022-09-01T00:10:22.520Z,99361.00
2022-09-01T00:12:50.468Z,99360.78
2022-09-01T00:15:18.569Z,99358.13
2022-09-01T00:17:47.919Z,99358.88
2022-09-01T00:20:20.121Z,99363.53
2022-09-01T00:22:48.942Z,99374.25
2022-09-01T00:25:20.440Z,99373.47
2022-09-01T00:27:49.407Z,99363.34
2022-09-01T00:30:17.664Z,99364.03
2022-09-01T00:32:47.717Z,99355.84
2022-09-01T00:35:17.221Z,99366.66
2022-09-01T00:37:45.533Z,99335.97
2022-09-01T00:40:15.989Z,99364.06
2022-09-01T00:42:45.151Z,99368.50
2022-09-01T00:45:13.416Z,99360.06
2022-09-01T00:47:41.508Z,99357.13
2022-09-01T00:50:13.763Z,99349.47
2022-09-01T00:52:45.900Z,99351.47
2022-09-01T00:55:18.775Z,99351.59
2022-09-01T00:57:47.629Z,99345.91
2022-09-01T01:00:18.826Z,99350.69
2022-09-01T01:02:47.666Z,99356.69
2022-09-01T01:05:17.475Z,99363.38
2022-09-01T01:07:47.932Z,99359.94
2022-09-01T01:10:18.576Z,99374.34
2022-09-01T01:12:47.179Z,99374.00
2022-09-01T01:15:17.282Z,99371.53
2022-09-01T01:17:45.626Z,99360.47
2022-09-01T01:20:35.455Z,99362.06
2022-09-01T01:23:13.675Z,99356.94
2022-09-01T01:25:46.619Z,99358.59
2022-09-01T01:28:16.728Z,99359.34
2022-09-01T01:30:52.534Z,99359.81
2022-09-01T01:33:23.237Z,99363.81
2022-09-01T01:35:52.327Z,99358.88
2022-09-01T01:38:23.010Z,99358.91
2022-09-01T01:40:55.819Z,99358.59
2022-09-01T01:43:24.681Z,99363.13
2022-09-01T01:45:56.884Z,99365.13
2022-09-01T01:48:25.042Z,99374.38
2022-09-01T01:50:55.024Z,99370.84
2022-09-01T01:53:23.987Z,99353.03
2022-09-01T01:55:53.586Z,99375.78
2022-09-01T01:58:24.703Z,99364.25
2022-09-01T02:00:54.966Z,99371.19
2022-09-01T02:03:26.211Z,99372.94
2022-09-01T02:05:56.454Z,99369.28
2022-09-01T02:08:26.163Z,99358.22
2022-09-01T02:10:57.894Z,99360.69
2022-09-01T02:13:28.645Z,99379.75
2022-09-01T02:16:01.217Z,99377.50
2022-09-01T02:18:35.404Z,99373.69
2022-09-01T02:21:08.688Z,99362.44
2022-09-01T02:23:37.831Z,99355.94
2022-09-01T02:26:18.165Z,99371.22
2022-09-01T02:28:54.212Z,99362.16
2022-09-01T02:31:24.560Z,99371.38
2022-09-01T02:33:54.475Z,99372.84
2022-09-01T02:36:25.314Z,99375.22
2022-09-01T02:38:56.407Z,99370.81
2022-09-01T02:41:29.300Z,99366.63
2022-09-01T02:43:58.661Z,99357.09
2022-09-01T02:46:26.813Z,99364.06
2022-09-01T02:48:54.966Z,99373.13
2022-09-01T02:51:25.599Z,99365.44
2022-09-01T02:53:53.864Z,99367.91
2022-09-01T02:56:25.387Z,99368.53
2022-09-01T02:58:55.687Z,99375.91
2022-09-01T03:01:25.998Z,99371.91
2022-09-01T03:03:57.777Z,99371.78
2022-09-01T03:06:26.998Z,99360.34
2022-09-01T03:08:59.782Z,99364.97
2022-09-01T03:11:29.669Z,99354.06
2022-09-01T03:13:59.452Z,99360.84
2022-09-01T03:16:27.546Z,99362.84
2022-09-01T03:18:55.568Z,99361.22
2022-09-01T03:21:23.965Z,99375.47
2022-09-01T03:23:53.206Z,99376.56
2022-09-01T03:26:23.055Z,99372.97
2022-09-01T03:28:52.127Z,99370.06
2022-09-01T03:31:21.945Z,99372.97
2022-09-01T03:33:51.092Z,99383.81
2022-09-01T03:36:20.313Z,99378.69
2022-09-01T03:38:49.884Z,99382.78
2022-09-01T03:41:19.659Z,99386.56
2022-09-01T03:43:48.378Z,99375.06
2022-09-01T03:46:21.821Z,99380.63
2022-09-01T03:48:55.072Z,99381.94
2022-09-01T03:51:24.549Z,99382.44
2022-09-01T03:53:55.119Z,99379.53
2022-09-01T03:56:27.095Z,99377.84
2022-09-01T03:58:56.335Z,99376.72
2022-09-01T04:01:26.001Z,99375.59
2022-09-01T04:03:55.925Z,99381.22
2022-09-01T04:06:26.062Z,99384.25
2022-09-01T04:08:57.845Z,99380.50
2022-09-01T04:11:26.497Z,99387.75
2022-09-01T04:13:54.560Z,99377.91
2022-09-01T04:16:42.395Z,99375.09
2022-09-01T04:19:21.241Z,99386.53
2022-09-01T04:21:51.756Z,99386.72
2022-09-01T04:24:20.596Z,99373.19
2022-09-01T04:26:49.753Z,99384.72
2022-09-01T04:29:24.270Z,99374.09
2022-09-01T04:31:53.728Z,99378.69
2022-09-01T04:34:24.911Z,99372.69
2022-09-01T04:36:56.897Z,99367.78
2022-09-01T04:39:25.450Z,99390.72
2022-09-01T04:41:54.317Z,99385.25
2022-09-01T04:44:22.615Z,99383.84
2022-09-01T04:46:51.060Z,99391.50
2022-09-01T04:49:23.733Z,99393.19
2022-09-01T04:51:54.507Z,99383.56
2022-09-01T04:54:24.161Z,99387.16
2022-09-01T04:56:55.069Z,99392.06
2022-09-01T04:59:27.241Z,99386.31
2022-09-01T05:01:57.750Z,99391.19
2022-09-01T05:04:28.516Z,99389.53
2022-09-01T05:07:01.226Z,99377.78
2022-09-01T05:09:30.766Z,99392.47
2022-09-01T05:12:01.797Z,99393.66
2022-09-01T05:14:29.842Z,99374.31
2022-09-01T05:16:58.923Z,99372.97
2022-09-01T05:19:29.167Z,99382.44
2022-09-01T05:22:00.086Z,99385.38
2022-09-01T05:24:32.168Z,99382.78
2022-09-01T05:27:00.689Z,99379.91
2022-09-01T05:29:29.740Z,99380.81
2022-09-01T05:31:58.879Z,99382.00
2022-09-01T05:34:28.030Z,99379.00
2022-09-01T05:37:01.961Z,99387.19
2022-09-01T05:39:30.091Z,99390.25
2022-09-01T05:41:59.746Z,99379.97
2022-09-01T05:44:27.728Z,99385.78
2022-09-01T05:46:56.238Z,99397.00
2022-09-01T05:49:24.756Z,99397.09
2022-09-01T05:51:54.129Z,99390.78
2022-09-01T05:54:27.405Z,99398.94
2022-09-01T05:57:12.640Z,99401.22
2022-09-01T05:59:46.184Z,99398.16
2022-09-01T06:02:14.287Z,99407.09
2022-09-01T06:04:44.306Z,99402.94
2022-09-01T06:07:16.406Z,99409.19
2022-09-01T06:09:49.043Z,99401.22
2022-09-01T06:12:24.058Z,99398.16
2022-09-01T06:14:54.518Z,99397.75
2022-09-01T06:17:24.907Z,99401.53
2022-09-01T06:19:56.095Z,99398.53
2022-09-01T06:22:25.594Z,99395.47
2022-09-01T06:25:01.088Z,99393.28
2022-09-01T06:27:30.752Z,99388.16
2022-09-01T06:29:58.891Z,99398.63
2022-09-01T06:32:28.006Z,99390.22
2022-09-01T06:34:58.278Z,99393.53
2022-09-01T06:37:26.847Z,99388.19
2022-09-01T06:39:57.597Z,99387.78
2022-09-01T06:42:26.209Z,99400.06
2022-09-01T06:44:54.654Z,99397.78
2022-09-01T06:47:22.591Z,99393.13
2022-09-01T06:49:52.659Z,99386.13
2022-09-01T06:52:24.119Z,99397.00
2022-09-01T06:54:55.018Z,99386.94
2022-09-01T07:00:18.806Z,99388.03
2022-09-01T07:02:47.936Z,99392.63
2022-09-01T07:08:13.604Z,99392.22
2022-09-01T07:13:36.376Z,99390.09
2022-09-01T07:19:00.357Z,99394.22
2022-09-01T07:21:41.998Z,99383.38
2022-09-01T07:24:20.883Z,99389.47
2022-09-01T07:26:50.262Z,99383.53
2022-09-01T07:29:22.803Z,99382.25
2022-09-01T07:34:46.284Z,99377.97
2022-09-01T07:43:12.964Z,99375.38
2022-09-01T07:45:48.067Z,99373.53
2022-09-01T07:51:36.855Z,99354.09
2022-09-01T07:54:06.082Z,99367.22
2022-09-01T07:56:37.727Z,99357.66
2022-09-01T07:59:10.598Z,99361.41
2022-09-01T08:01:45.364Z,99354.06
2022-09-01T08:04:13.395Z,99363.38
2022-09-01T08:06:41.382Z,99355.88
2022-09-01T08:09:11.936Z,99359.13
2022-09-01T08:12:08.810Z,99356.66
2022-09-01T08:14:36.829Z,99354.25
2022-09-01T08:19:55.363Z,99356.03
2022-09-01T08:22:25.578Z,99350.44
2022-09-01T08:24:54.499Z,99358.81
2022-09-01T08:27:23.300Z,99355.25
2022-09-01T08:29:51.433Z,99345.94
2022-09-01T08:32:21.757Z,99352.69
2022-09-01T08:34:57.781Z,99345.66
2022-09-01T08:37:26.397Z,99341.16
2022-09-01T08:39:54.430Z,99346.88
2022-09-01T08:42:35.127Z,99342.03
2022-09-01T08:45:12.950Z,99340.28
2022-09-01T08:48:04.757Z,99335.44
2022-09-01T08:50:30.626Z,99325.44
2022-09-01T08:53:10.699Z,99330.22
2022-09-01T08:55:44.569Z,99332.81
2022-09-01T08:58:16.695Z,99307.63
2022-09-01T09:00:50.506Z,99318.34
2022-09-01T09:03:48.203Z,99316.63
2022-09-01T09:06:22.892Z,99316.38
2022-09-01T09:08:58.007Z,99314.44
2022-09-01T09:12:11.522Z,99314.31
2022-09-01T09:14:53.082Z,99312.81
2022-09-01T09:17:26.781Z,99313.38
2022-09-01T09:19:56.192Z,99313.50
2022-09-01T09:22:24.217Z,99313.16
2022-09-01T09:24:56.384Z,99296.25
2022-09-01T09:27:26.938Z,99300.88
2022-09-01T09:29:57.164Z,99297.22
2022-09-01T09:33:09.681Z,99308.28
2022-09-01T09:35:34.673Z,99293.53
2022-09-01T09:38:21.745Z,99287.97
2022-09-01T09:41:18.385Z,99284.47
2022-09-01T09:43:50.533Z,99294.09
2022-09-01T09:46:25.522Z,99289.69
2022-09-01T09:49:19.419Z,99280.91
2022-09-01T09:52:18.175Z,99276.13
2022-09-01T09:55:04.719Z,99276.31
2022-09-01T09:57:35.825Z,99276.78
2022-09-01T10:00:09.160Z,99280.00
2022-09-01T10:02:39.054Z,99253.56
2022-09-01T10:05:24.825Z,99265.25
2022-09-01T10:07:55.930Z,99258.56
2022-09-01T10:10:30.954Z,99251.97
2022-09-01T10:13:00.625Z,99256.47
2022-09-01T10:15:33.328Z,99257.44
2022-09-01T10:18:29.197Z,99241.00
2022-09-01T10:21:00.466Z,99247.38
2022-09-01T10:23:32.797Z,99246.16
2022-09-01T10:26:06.716Z,99247.72
2022-09-01T10:28:48.874Z,99240.41
2022-09-01T10:31:20.369Z,99227.38
2022-09-01T10:33:49.764Z,99234.94
2022-09-01T10:36:20.003Z,99222.75
2022-09-01T10:38:58.722Z,99234.53
2022-09-01T10:42:07.743Z,99233.97
2022-09-01T10:44:38.912Z,99235.41
2022-09-01T10:47:14.721Z,99231.13
2022-09-01T10:50:01.519Z,99227.81
2022-09-01T10:53:09.644Z,99224.28
2022-09-01T10:55:48.626Z,99224.47
2022-09-01T11:02:35.011Z,99212.94
2022-09-01T11:05:17.190Z,99218.94
2022-09-01T11:08:09.095Z,99204.28
2022-09-01T11:10:56.298Z,99194.72
2022-09-01T11:13:38.452Z,99204.00
2022-09-01T11:16:49.211Z,99201.75
2022-09-01T11:19:32.976Z,99204.44
2022-09-01T11:22:27.333Z,99195.72
2022-09-01T11:25:41.390Z,99182.34
2022-09-01T11:28:38.703Z,99188.91
2022-09-01T11:31:24.053Z,99190.94
2022-09-01T11:34:11.759Z,99186.88
2022-09-01T11:36:52.797Z,99179.13
2022-09-01T11:39:32.646Z,99164.19
2022-09-01T11:42:05.020Z,99183.69
2022-09-01T11:44:42.621Z,99182.47
2022-09-01T11:47:16.738Z,99178.66
2022-09-01T11:49:51.011Z,99183.88
2022-09-01T11:52:21.328Z,99163.06
2022-09-01T11:54:50.706Z,99170.94
2022-09-01T11:57:24.904Z,99169.75
2022-09-01T11:59:54.765Z,99161.94
2022-09-01T12:02:25.732Z,99157.53
2022-09-01T12:04:55.393Z,99105.56
2022-09-01T12:07:43.882Z,99159.75
2022-09-01T12:10:20.174Z,99145.63
2022-09-01T12:12:48.707Z,99130.34
2022-09-01T12:15:23.861Z,99126.59
2022-09-01T12:17:53.219Z,99133.03
2022-09-01T12:20:28.836Z,99129.34
2022-09-01T12:22:58.328Z,99131.44
2022-09-01T12:25:29.602Z,99136.59
2022-09-01T12:27:58.540Z,99111.03
2022-09-01T12:30:28.339Z,99119.50
2022-09-01T12:35:47.592Z,99113.25
2022-09-01T12:38:33.684Z,99108.59
2022-09-01T12:41:01.665Z,99107.56
2022-09-01T12:43:37.031Z,99107.06
2022-09-01T12:46:09.314Z,99107.13
2022-09-01T12:48:41.518Z,99112.53
2022-09-01T12:51:21.273Z,99113.03
2022-09-01T12:53:54.214Z,99103.84
2022-09-01T12:56:31.093Z,99095.50
2022-09-01T12:59:15.831Z,99106.88
2022-09-01T13:01:48.231Z,99107.41
2022-09-01T13:04:26.462Z,99107.13
2022-09-01T13:06:55.738Z,99106.59
2022-09-01T13:09:24.011Z,99102.84
2022-09-01T13:12:10.038Z,99103.91
2022-09-01T13:14:38.062Z,99093.41
2022-09-01T13:17:10.078Z,99096.09
2022-09-01T13:19:42.618Z,99100.66
2022-09-01T13:22:11.027Z,99079.88
2022-09-01T13:24:39.646Z,99092.56
2022-09-01T13:27:23.650Z,99098.50
2022-09-01T13:29:52.046Z,99085.75
2022-09-01T13:32:22.862Z,99087.66
2022-09-01T13:34:53.787Z,99084.13
2022-09-01T13:37:22.715Z,99088.97
2022-09-01T13:39:51.548Z,99090.06
2022-09-01T13:42:20.136Z,99090.22
2022-09-01T13:44:52.343Z,99091.81
2022-09-01T13:47:29.178Z,99086.38
2022-09-01T13:50:06.868Z,99087.44
2022-09-01T13:52:36.441Z,99089.53
2022-09-01T13:55:04.947Z,99084.94
2022-09-01T13:57:36.188Z,99080.97
2022-09-01T14:00:07.197Z,99084.72
2022-09-01T14:02:37.485Z,99086.31
2022-09-01T14:05:06.139Z,99079.28
2022-09-01T14:07:34.220Z,99082.56
2022-09-01T14:10:02.811Z,99075.56
2022-09-01T14:12:32.105Z,99077.91
2022-09-01T14:15:18.462Z,99073.41
2022-09-01T14:17:51.860Z,99087.66
2022-09-01T14:20:22.114Z,99081.75
2022-09-01T14:22:51.342Z,99072.13
2022-09-01T14:25:21.709Z,99061.03
2022-09-01T14:27:50.818Z,99064.06
2022-09-01T14:30:24.870Z,99072.84
2022-09-01T14:32:58.634Z,99064.78
2022-09-01T14:35:31.779Z,99070.13
2022-09-01T14:38:00.529Z,99080.63
2022-09-01T14:40:29.273Z,99078.25
2022-09-01T14:42:57.554Z,99049.13
2022-09-01T14:45:27.820Z,99071.03
2022-09-01T14:48:01.174Z,99075.88
2022-09-01T14:50:32.678Z,99068.88
2022-09-01T14:53:03.214Z,99073.16
2022-09-01T14:55:32.798Z,99066.28
2022-09-01T14:58:00.999Z,99065.31
2022-09-01T15:00:30.287Z,99062.63
2022-09-01T15:02:59.988Z,99063.72
2022-09-01T15:05:28.585Z,99062.38
2022-09-01T15:07:56.902Z,99062.94
2022-09-01T15:10:26.943Z,99061.31
2022-09-01T15:12:57.570Z,99055.66
2022-09-01T15:15:26.954Z,99065.88
2022-09-01T15:17:55.656Z,99059.94
2022-09-01T15:20:49.319Z,99076.63
2022-09-01T15:23:20.194Z,99084.75
2022-09-01T15:25:48.996Z,99087.91
2022-09-01T15:28:17.436Z,99088.16
2022-09-01T15:30:46.372Z,99096.19
2022-09-01T15:33:16.621Z,99099.38
2022-09-01T15:35:47.417Z,99089.41
2022-09-01T15:38:17.774Z,99089.66
2022-09-01T15:40:50.239Z,99085.31
2022-09-01T15:43:27.468Z,99091.84
2022-09-01T15:45:56.703Z,99097.47
2022-09-01T15:48:24.830Z,99091.53
2022-09-01T15:50:54.714Z,99088.94
2022-09-01T15:53:24.780Z,99091.44
2022-09-01T15:55:53.680Z,99089.53
2022-09-01T15:58:22.969Z,99090.88
2022-09-01T16:00:52.701Z,99091.44
2022-09-01T16:03:20.824Z,99085.78
2022-09-01T16:05:48.951Z,99084.69
2022-09-01T16:08:19.781Z,99083.09
2022-09-01T16:10:47.706Z,99080.41
2022-09-01T16:13:15.771Z,99079.84
2022-09-01T16:15:50.157Z,99072.53
2022-09-01T16:18:28.424Z,99080.00
2022-09-01T16:21:02.311Z,99071.59
2022-09-01T16:23:40.745Z,99072.09
2022-09-01T16:26:09.123Z,99078.00
2022-09-01T16:28:39.031Z,99082.03
2022-09-01T16:31:15.271Z,99082.72
2022-09-01T16:33:48.392Z,99071.59
2022-09-01T16:36:30.261Z,99074.59
2022-09-01T16:39:10.535Z,99075.88
2022-09-01T16:41:50.067Z,99071.50
2022-09-01T16:44:30.783Z,99079.84
2022-09-01T16:47:11.666Z,99084.09
2022-09-01T16:49:47.358Z,99086.19
2022-09-01T16:52:23.527Z,99074.09
2022-09-01T16:55:06.332Z,99069.97
2022-09-01T16:57:43.020Z,99068.88
2022-09-01T17:00:14.184Z,99072.03
2022-09-01T17:02:52.664Z,99073.34
2022-09-01T17:05:26.058Z,99076.59
2022-09-01T17:08:06.997Z,99084.09
2022-09-01T17:10:44.033Z,99091.00
2022-09-01T17:13:21.224Z,99084.75
2022-09-01T17:15:58.521Z,99092.56
2022-09-01T17:18:34.849Z,99099.22
2022-09-01T17:21:11.226Z,99104.97
2022-09-01T17:23:46.261Z,99104.13
2022-09-01T17:26:20.594Z,99109.75
2022-09-01T17:28:55.432Z,99112.66
2022-09-01T17:31:41.855Z,99110.16
2022-09-01T17:34:23.962Z,99125.94
2022-09-01T17:37:02.036Z,99119.94
2022-09-01T17:39:39.624Z,99121.06
2022-09-01T17:42:21.739Z,99128.00
2022-09-01T17:44:56.498Z,99125.47
2022-09-01T17:47:35.963Z,99133.13
2022-09-01T17:50:13.074Z,99138.25
2022-09-01T17:52:52.881Z,99137.09
2022-09-01T17:55:37.877Z,99138.44
2022-09-01T17:58:17.160Z,99147.63
2022-09-01T18:00:53.711Z,99143.38
2022-09-01T18:03:45.625Z,99145.88
2022-09-01T18:06:28.883Z,99147.44
2022-09-01T18:08:59.449Z,99152.50
2022-09-01T18:11:34.985Z,99152.59
2022-09-01T18:14:09.844Z,99149.41
2022-09-01T18:16:43.683Z,99163.91
2022-09-01T18:19:19.493Z,99161.84
2022-09-01T18:21:53.312Z,99159.81
2022-09-01T18:24:24.507Z,99167.34
2022-09-01T18:26:53.343Z,99175.75
2022-09-01T18:29:25.319Z,99184.63
2022-09-01T18:32:08.448Z,99185.22
2022-09-01T18:35:11.756Z,99180.25
2022-09-01T18:37:50.911Z,99189.78
2022-09-01T18:40:27.371Z,99206.78
2022-09-01T18:43:04.080Z,99209.06
2022-09-01T18:45:41.985Z,99201.53
2022-09-01T18:48:20.163Z,99213.28
2022-09-01T18:50:56.070Z,99210.50
2022-09-01T18:53:36.418Z,99214.13
2022-09-01T18:56:14.126Z,99210.50
2022-09-01T18:58:56.803Z,99225.13
2022-09-01T19:01:33.748Z,99225.88
2022-09-01T19:04:15.549Z,99232.09
2022-09-01T19:06:54.277Z,99230.13
2022-09-01T19:09:30.153Z,99220.81
2022-09-01T19:12:10.763Z,99222.13
2022-09-01T19:14:47.206Z,99223.56
2022-09-01T19:17:33.705Z,99221.56
2022-09-01T19:20:05.702Z,99230.47
2022-09-01T19:22:42.087Z,99227.22
2022-09-01T19:25:30.583Z,99233.69
2022-09-01T19:28:03.412Z,99235.53
2022-09-01T19:30:35.457Z,99248.91
2022-09-01T19:33:07.649Z,99244.84
2022-09-01T19:35:37.936Z,99249.28
2022-09-01T19:38:08.910Z,99248.25
2022-09-01T19:40:40.553Z,99239.50
2022-09-01T19:43:11.742Z,99243.47
2022-09-01T19:45:48.683Z,99245.00
2022-09-01T19:48:22.405Z,99244.63
2022-09-01T19:50:55.849Z,99251.03
2022-09-01T19:53:39.606Z,99249.03
2022-09-01T19:56:13.366Z,99262.91
2022-09-01T19:58:53.260Z,99251.13
2022-09-01T20:01:27.543Z,99247.22
2022-09-01T20:04:15.918Z,99269.75
2022-09-01T20:06:49.095Z,99264.13
2022-09-01T20:09:21.745Z,99261.19
2022-09-01T20:11:54.287Z,99258.28
2022-09-01T20:14:42.846Z,99255.69
2022-09-01T20:17:22.633Z,99263.41
2022-09-01T20:19:58.256Z,99251.06
2022-09-01T20:22:33.619Z,99257.09
2022-09-01T20:25:09.824Z,99252.84
2022-09-01T20:27:49.202Z,99271.97
2022-09-01T20:30:19.478Z,99269.34
2022-09-01T20:32:53.327Z,99268.75
2022-09-01T20:35:28.951Z,99276.44
2022-09-01T20:38:00.630Z,99282.56
2022-09-01T20:40:32.655Z,99283.59
2022-09-01T20:43:12.724Z,99287.66
2022-09-01T20:45:41.310Z,99286.22
2022-09-01T20:48:15.815Z,99289.22
2022-09-01T20:50:52.911Z,99291.06
2022-09-01T20:53:48.311Z,99282.50
2022-09-01T20:56:22.801Z,99279.56
2022-09-01T20:59:00.897Z,99280.16
2022-09-01T21:01:37.394Z,99284.63
2022-09-01T21:04:10.583Z,99276.13
2022-09-01T21:07:04.612Z,99286.69
2022-09-01T21:09:48.521Z,99295.63
2022-09-01T21:12:24.499Z,99299.81
2022-09-01T21:15:01.938Z,99306.59
2022-09-01T21:17:40.179Z,99303.66
2022-09-01T21:20:19.498Z,99299.47
2022-09-01T21:22:49.160Z,99302.50
2022-09-01T21:25:17.223Z,99303.59
2022-09-01T21:27:48.760Z,99304.06
2022-09-01T21:30:17.296Z,99308.22
2022-09-01T21:32:45.437Z,99305.78
2022-09-01T21:35:15.637Z,99314.53
2022-09-01T21:37:43.923Z,99324.56
2022-09-01T21:40:15.015Z,99324.84
2022-09-01T21:42:47.409Z,99320.53
2022-09-01T21:45:17.617Z,99313.72
2022-09-01T21:47:47.928Z,99322.13
2022-09-01T21:50:17.737Z,99320.84
2022-09-01T21:52:45.790Z,99323.31
2022-09-01T21:55:19.473Z,99311.13
2022-09-01T21:57:50.170Z,99314.56
2022-09-01T22:00:22.051Z,99318.41
2022-09-01T22:02:50.133Z,99323.91
2022-09-01T22:05:18.208Z,99320.75
2022-09-01T22:07:47.853Z,99319.09
2022-09-01T22:10:19.151Z,99314.72
2022-09-01T22:12:48.665Z,99323.03
2022-09-01T22:15:19.458Z,99317.94
2022-09-01T22:17:47.973Z,99313.16
2022-09-01T22:20:19.574Z,99320.59
2022-09-01T22:22:48.219Z,99311.72
2022-09-01T22:25:19.817Z,99310.38
2022-09-01T22:27:47.913Z,99314.25
2022-09-01T22:30:16.745Z,99307.19
2022-09-01T22:32:45.457Z,99314.16
2022-09-01T22:35:15.208Z,99311.63
2022-09-01T22:37:43.723Z,99313.50
2022-09-01T22:40:13.078Z,99313.06
2022-09-01T22:42:43.015Z,99309.78
2022-09-01T22:45:13.124Z,99318.44
2022-09-01T22:47:41.736Z,99310.91
2022-09-01T22:50:11.748Z,99313.56
2022-09-01T22:52:40.298Z,99313.25
2022-09-01T22:55:10.051Z,99301.22
2022-09-01T22:57:38.832Z,99291.38
2022-09-01T23:00:10.884Z,99308.00
2022-09-01T23:02:39.144Z,99300.84
2022-09-01T23:05:08.173Z,99311.28
2022-09-01T23:07:39.461Z,99314.19
2022-09-01T23:10:09.615Z,99307.50
2022-09-01T23:12:37.627Z,99311.25
2022-09-01T23:15:06.499Z,99312.63
2022-09-01T23:17:36.768Z,99313.13
2022-09-01T23:20:07.449Z,99310.47
2022-09-01T23:22:35.455Z,99320.94
2022-09-01T23:25:03.437Z,99316.84
2022-09-01T23:27:32.064Z,99316.03
2022-09-01T23:30:00.258Z,99299.03
2022-09-01T23:32:28.357Z,99302.47
2022-09-01T23:34:57.767Z,99304.56
2022-09-01T23:37:25.724Z,99309.69
2022-09-01T23:39:53.940Z,99306.22
2022-09-01T23:42:22.544Z,99307.22
2022-09-01T23:44:50.884Z,99314.78
2022-09-01T23:47:19.623Z,99306.59
2022-09-01T23:49:47.664Z,99301.88
2022-09-01T23:52:17.180Z,99298.97
2022-09-01T23:54:45.153Z,99310.53
2022-09-01T23:57:13.148Z,99305.81
2022-09-01T23:59:41.184Z,99302.31
